createdAt,value
2022-08-31T00:05:19.251Z,5.70
2022-08-31T00:11:28.720Z,5.65
2022-08-31T00:17:31.381Z,5.68
2022-08-31T00:29:35.474Z,5.55
2022-08-31T00:35:39.352Z,5.65
2022-08-31T00:41:41.608Z,6.18
2022-08-31T00:47:44.336Z,5.90
2022-08-31T00:53:48.855Z,6.05
2022-08-31T00:59:53.278Z,5.88
2022-08-31T01:05:56.411Z,5.53
2022-08-31T01:11:59.087Z,6.45
2022-08-31T01:18:03.574Z,5.80
2022-08-31T01:24:07.240Z,6.70
2022-08-31T01:30:12.568Z,5.47
2022-08-31T01:36:16.326Z,5.97
2022-08-31T01:42:21.674Z,6.20
2022-08-31T01:48:25.405Z,5.80
2022-08-31T01:54:28.113Z,5.63
2022-08-31T02:00:31.561Z,6.65
2022-08-31T02:06:34.595Z,6.15
2022-08-31T02:12:37.281Z,6.93
2022-08-31T02:18:42.985Z,6.95
2022-08-31T02:24:47.786Z,7.35
2022-08-31T02:30:49.971Z,6.95
2022-08-31T02:42:54.620Z,7.43
2022-08-31T02:49:01.948Z,6.78
2022-08-31T02:55:05.466Z,6.88
2022-08-31T03:01:07.976Z,7.15
2022-08-31T03:07:11.286Z,7.22
2022-08-31T03:13:13.887Z,6.18
2022-08-31T03:19:18.284Z,7.43
2022-08-31T03:25:23.752Z,7.25
2022-08-31T03:31:26.613Z,8.38
2022-08-31T03:37:29.755Z,8.00
2022-08-31T03:43:36.700Z,9.75
2022-08-31T03:49:39.493Z,8.63
2022-08-31T03:55:51.676Z,8.43
2022-08-31T04:01:54.439Z,9.90
2022-08-31T04:08:25.999Z,8.88
2022-08-31T04:14:46.950Z,12.10
2022-08-31T04:21:16.561Z,13.75
2022-08-31T04:27:19.776Z,12.07
2022-08-31T04:33:22.506Z,12.48
2022-08-31T04:39:25.083Z,11.35
2022-08-31T04:45:27.510Z,12.38
2022-08-31T04:51:32.457Z,11.55
2022-08-31T04:57:36.355Z,13.50
2022-08-31T05:03:38.997Z,12.52
2022-08-31T05:09:41.436Z,13.52
2022-08-31T05:15:44.680Z,12.73
2022-08-31T05:21:51.473Z,14.88
2022-08-31T05:27:55.974Z,11.75
2022-08-31T05:33:58.560Z,12.23
2022-08-31T05:40:11.040Z,13.18
2022-08-31T05:46:14.539Z,11.23
2022-08-31T05:52:16.824Z,11.55
2022-08-31T05:58:18.948Z,11.52
2022-08-31T06:04:21.194Z,9.18
2022-08-31T06:10:23.738Z,8.70
2022-08-31T06:16:27.222Z,13.60
2022-08-31T06:22:29.820Z,8.82
2022-08-31T06:28:33.807Z,8.18
2022-08-31T06:34:38.312Z,7.70
2022-08-31T06:40:42.902Z,8.32
2022-08-31T06:47:19.669Z,8.73
2022-08-31T06:53:24.400Z,8.77
2022-08-31T06:59:52.934Z,7.60
2022-08-31T07:06:27.226Z,7.65
2022-08-31T07:12:29.565Z,7.05
2022-08-31T07:18:32.370Z,7.50
2022-08-31T07:24:35.795Z,8.27
2022-08-31T07:30:42.299Z,7.22
2022-08-31T07:37:06.234Z,6.68
2022-08-31T07:43:11.186Z,6.13
2022-08-31T07:49:16.820Z,6.22
2022-08-31T07:55:38.062Z,7.28
2022-08-31T08:01:45.446Z,6.32
2022-08-31T08:07:54.649Z,6.18
2022-08-31T08:14:17.511Z,5.90
2022-08-31T08:20:40.734Z,6.80
2022-08-31T08:26:46.047Z,6.03
2022-08-31T08:33:13.487Z,6.57
2022-08-31T08:39:17.058Z,6.22
2022-08-31T08:45:30.578Z,6.55
2022-08-31T08:51:38.641Z,5.85
2022-08-31T08:57:44.618Z,6.70
2022-08-31T09:04:25.790Z,6.97
2022-08-31T09:10:59.542Z,6.70
2022-08-31T09:17:17.183Z,5.70
2022-08-31T09:23:19.556Z,6.03
2022-08-31T09:29:31.289Z,6.03
2022-08-31T09:35:42.342Z,5.68
2022-08-31T09:41:45.398Z,6.20
2022-08-31T09:47:53.164Z,6.10
2022-08-31T09:54:22.608Z,5.28
2022-08-31T10:00:45.350Z,5.10
2022-08-31T10:07:08.330Z,6.00
2022-08-31T10:13:30.661Z,5.70
2022-08-31T10:19:52.171Z,6.45
2022-08-31T10:26:00.469Z,5.15
2022-08-31T10:32:18.178Z,5.78
2022-08-31T10:38:43.315Z,4.63
2022-08-31T10:44:56.445Z,5.13
2022-08-31T10:51:06.115Z,5.03
2022-08-31T10:57:22.331Z,4.47
2022-08-31T11:03:44.074Z,5.18
2022-08-31T11:09:55.278Z,5.95
2022-08-31T11:16:03.641Z,14.40
2022-08-31T11:22:37.215Z,20.13
2022-08-31T11:28:51.201Z,6.32
2022-08-31T11:34:56.887Z,7.43
2022-08-31T11:41:01.604Z,6.72
2022-08-31T11:47:22.571Z,7.03
2022-08-31T11:53:36.909Z,7.38
2022-08-31T11:59:42.165Z,7.57
2022-08-31T12:05:58.178Z,8.00
2022-08-31T12:12:07.952Z,7.53
2022-08-31T12:18:39.357Z,6.70
2022-08-31T12:25:04.218Z,6.93
2022-08-31T12:31:13.016Z,6.47
2022-08-31T12:37:36.154Z,5.95
2022-08-31T12:43:39.785Z,6.68
2022-08-31T12:50:08.384Z,5.38
2022-08-31T12:56:29.146Z,7.05
2022-08-31T13:02:35.894Z,6.13
2022-08-31T13:08:44.080Z,6.65
2022-08-31T13:14:46.254Z,15.45
2022-08-31T13:20:53.236Z,7.05
2022-08-31T13:27:11.807Z,7.45
2022-08-31T13:33:23.656Z,8.65
2022-08-31T13:39:35.288Z,6.45
2022-08-31T13:45:39.894Z,4.95
2022-08-31T13:51:47.178Z,5.78
2022-08-31T13:58:01.269Z,5.38
2022-08-31T14:04:03.475Z,5.80
2022-08-31T14:10:20.739Z,5.13
2022-08-31T14:16:37.899Z,5.88
2022-08-31T14:22:46.566Z,5.50
2022-08-31T14:28:54.273Z,5.90
2022-08-31T14:34:58.128Z,7.38
2022-08-31T14:41:00.270Z,5.82
2022-08-31T14:47:02.567Z,6.00
2022-08-31T14:53:09.888Z,6.20
2022-08-31T14:59:14.202Z,6.30
2022-08-31T15:05:16.389Z,6.30
2022-08-31T15:11:18.751Z,6.40
2022-08-31T15:17:24.953Z,6.68
2022-08-31T15:23:27.116Z,6.53
2022-08-31T15:29:31.331Z,7.88
2022-08-31T15:35:35.099Z,6.25
2022-08-31T15:41:38.515Z,6.88
2022-08-31T15:48:00.137Z,6.05
2022-08-31T15:54:21.087Z,7.43
2022-08-31T16:00:26.338Z,6.40
2022-08-31T16:06:32.667Z,6.63
2022-08-31T16:12:35.280Z,6.13
2022-08-31T16:18:38.343Z,5.90
2022-08-31T16:24:41.142Z,7.35
2022-08-31T16:30:44.148Z,6.18
2022-08-31T16:36:48.878Z,5.93
2022-08-31T16:42:51.330Z,5.68
2022-08-31T16:49:12.464Z,6.75
2022-08-31T16:55:15.258Z,7.68
2022-08-31T17:01:21.188Z,5.55
2022-08-31T17:07:25.139Z,6.88
2022-08-31T17:13:27.376Z,7.72
2022-08-31T17:25:37.376Z,8.52
2022-08-31T17:31:43.391Z,7.53
2022-08-31T17:37:46.344Z,7.18
2022-08-31T17:43:48.483Z,7.50
2022-08-31T17:55:55.555Z,7.45
2022-08-31T18:02:02.657Z,7.68
2022-08-31T18:08:04.857Z,6.55
2022-08-31T18:20:09.927Z,6.22
2022-08-31T18:26:16.819Z,7.43
2022-08-31T18:32:19.132Z,7.75
2022-08-31T18:38:21.329Z,8.20
2022-08-31T18:50:46.989Z,6.60
2022-08-31T18:56:50.912Z,6.93
2022-08-31T19:02:54.335Z,6.93
2022-08-31T19:08:59.170Z,7.55
2022-08-31T19:15:03.904Z,7.80
2022-08-31T19:21:18.432Z,7.38
2022-08-31T19:27:20.851Z,6.80
2022-08-31T19:33:26.375Z,6.97
2022-08-31T19:39:37.042Z,7.53
2022-08-31T19:45:42.709Z,8.32
2022-08-31T19:51:52.050Z,9.35
2022-08-31T19:57:54.919Z,9.70
2022-08-31T20:03:57.300Z,9.35
2022-08-31T20:10:00.019Z,9.80
2022-08-31T20:16:05.058Z,10.38
2022-08-31T20:22:08.358Z,9.68
2022-08-31T20:28:11.858Z,7.88
2022-08-31T20:34:18.549Z,7.63
2022-08-31T20:40:21.013Z,8.48
2022-08-31T20:46:41.775Z,9.18
2022-08-31T20:52:43.984Z,8.60
2022-08-31T20:58:46.972Z,8.35
2022-08-31T21:04:50.461Z,8.70
2022-08-31T21:10:52.744Z,9.63
2022-08-31T21:16:56.510Z,8.85
2022-08-31T21:22:58.737Z,9.05
2022-08-31T21:29:01.110Z,8.93
2022-08-31T21:35:03.401Z,9.57
2022-08-31T21:41:08.397Z,8.65
2022-08-31T21:47:15.313Z,9.38
2022-08-31T21:53:17.612Z,8.52
2022-08-31T21:59:22.522Z,7.53
2022-08-31T22:05:24.761Z,7.68
2022-08-31T22:11:29.467Z,6.93
2022-08-31T22:17:55.794Z,7.80
2022-08-31T22:23:56.703Z,8.27
2022-08-31T22:30:00.258Z,7.40
2022-08-31T22:36:02.713Z,7.35
2022-08-31T22:48:07.495Z,7.40
2022-08-31T22:54:10.920Z,7.40
2022-08-31T23:00:14.888Z,7.18
2022-08-31T23:06:20.505Z,6.93
2022-08-31T23:12:26.621Z,6.97
2022-08-31T23:18:29.056Z,6.78
2022-08-31T23:30:37.249Z,6.82
2022-08-31T23:36:42.202Z,7.80
2022-08-31T23:42:44.765Z,7.97
2022-08-31T23:48:47.500Z,7.35
2022-08-31T23:54:52.786Z,7.97
